sensor_id;sensor_type;location;lat;lon;timestamp;P1;durP1;ratioP1;P2;durP2;ratioP2
18391;SDS011;9322;50.932;5.318;2022-08-24T00:00:05;3.60;;;2.40;;
18391;SDS011;9322;50.932;5.318;2022-08-24T00:02:34;9.00;;;2.55;;
18391;SDS011;9322;50.932;5.318;2022-08-24T00:05:00;3.92;;;2.20;;
18391;SDS011;9322;50.932;5.318;2022-08-24T00:07:25;5.28;;;2.88;;
18391;SDS011;9322;50.932;5.318;2022-08-24T00:09:52;7.40;;;3.00;;
18391;SDS011;9322;50.932;5.318;2022-08-24T00:12:17;5.55;;;2.88;;
18391;SDS011;9322;50.932;5.318;2022-08-24T00:14:43;6.43;;;3.20;;
18391;SDS011;9322;50.932;5.318;2022-08-24T00:17:09;5.80;;;3.08;;
18391;SDS011;9322;50.932;5.318;2022-08-24T00:19:36;4.80;;;3.03;;
18391;SDS011;9322;50.932;5.318;2022-08-24T00:22:02;5.45;;;3.15;;
18391;SDS011;9322;50.932;5.318;2022-08-24T00:24:28;7.97;;;3.55;;
18391;SDS011;9322;50.932;5.318;2022-08-24T00:26:54;9.02;;;3.38;;
18391;SDS011;9322;50.932;5.318;2022-08-24T00:29:20;5.25;;;3.50;;
18391;SDS011;9322;50.932;5.318;2022-08-24T00:31:47;5.78;;;3.13;;
18391;SDS011;9322;50.932;5.318;2022-08-24T00:34:13;5.90;;;3.40;;
18391;SDS011;9322;50.932;5.318;2022-08-24T00:36:42;4.93;;;3.75;;
18391;SDS011;9322;50.932;5.318;2022-08-24T00:39:08;5.30;;;3.53;;
18391;SDS011;9322;50.932;5.318;2022-08-24T00:41:39;7.82;;;3.90;;
18391;SDS011;9322;50.932;5.318;2022-08-24T00:44:08;6.18;;;4.10;;
18391;SDS011;9322;50.932;5.318;2022-08-24T00:49:12;9.57;;;3.80;;
18391;SDS011;9322;50.932;5.318;2022-08-24T00:54:47;6.90;;;4.18;;
18391;SDS011;9322;50.932;5.318;2022-08-24T00:57:18;9.70;;;4.47;;
18391;SDS011;9322;50.932;5.318;2022-08-24T00:59:50;7.75;;;4.13;;
18391;SDS011;9322;50.932;5.318;2022-08-24T01:02:20;6.53;;;3.38;;
18391;SDS011;9322;50.932;5.318;2022-08-24T01:05:08;8.23;;;3.92;;
18391;SDS011;9322;50.932;5.318;2022-08-24T01:07:35;6.70;;;4.20;;
18391;SDS011;9322;50.932;5.318;2022-08-24T01:10:04;9.05;;;4.20;;
18391;SDS011;9322;50.932;5.318;2022-08-24T01:12:33;7.40;;;3.92;;
18391;SDS011;9322;50.932;5.318;2022-08-24T01:15:02;4.20;;;3.30;;
18391;SDS011;9322;50.932;5.318;2022-08-24T01:17:30;6.53;;;3.70;;
18391;SDS011;9322;50.932;5.318;2022-08-24T01:20:15;5.65;;;3.95;;
18391;SDS011;9322;50.932;5.318;2022-08-24T01:25:25;7.25;;;3.47;;
18391;SDS011;9322;50.932;5.318;2022-08-24T01:27:54;14.50;;;3.63;;
18391;SDS011;9322;50.932;5.318;2022-08-24T01:30:23;6.75;;;3.80;;
18391;SDS011;9322;50.932;5.318;2022-08-24T01:32:51;7.78;;;3.80;;
18391;SDS011;9322;50.932;5.318;2022-08-24T01:35:19;7.85;;;3.63;;
18391;SDS011;9322;50.932;5.318;2022-08-24T01:37:44;6.55;;;3.50;;
18391;SDS011;9322;50.932;5.318;2022-08-24T01:40:10;6.93;;;3.60;;
18391;SDS011;9322;50.932;5.318;2022-08-24T01:42:37;8.37;;;4.00;;
18391;SDS011;9322;50.932;5.318;2022-08-24T01:45:03;5.53;;;3.72;;
18391;SDS011;9322;50.932;5.318;2022-08-24T01:47:29;7.88;;;3.85;;
18391;SDS011;9322;50.932;5.318;2022-08-24T01:49:54;8.13;;;4.10;;
18391;SDS011;9322;50.932;5.318;2022-08-24T01:52:21;6.22;;;4.22;;
18391;SDS011;9322;50.932;5.318;2022-08-24T01:54:49;10.15;;;5.10;;
18391;SDS011;9322;50.932;5.318;2022-08-24T01:57:15;8.30;;;4.13;;
18391;SDS011;9322;50.932;5.318;2022-08-24T01:59:41;9.07;;;4.90;;
18391;SDS011;9322;50.932;5.318;2022-08-24T02:02:09;8.68;;;4.60;;
18391;SDS011;9322;50.932;5.318;2022-08-24T02:04:39;6.23;;;4.30;;
18391;SDS011;9322;50.932;5.318;2022-08-24T02:07:04;9.00;;;4.33;;
18391;SDS011;9322;50.932;5.318;2022-08-24T02:09:30;6.32;;;4.32;;
18391;SDS011;9322;50.932;5.318;2022-08-24T02:11:56;7.23;;;4.47;;
18391;SDS011;9322;50.932;5.318;2022-08-24T02:14:22;11.57;;;4.83;;
18391;SDS011;9322;50.932;5.318;2022-08-24T02:16:48;6.53;;;4.63;;
18391;SDS011;9322;50.932;5.318;2022-08-24T02:19:13;8.85;;;4.68;;
18391;SDS011;9322;50.932;5.318;2022-08-24T02:21:39;7.60;;;5.10;;
18391;SDS011;9322;50.932;5.318;2022-08-24T02:24:05;9.25;;;4.90;;
18391;SDS011;9322;50.932;5.318;2022-08-24T02:26:31;9.95;;;5.18;;
18391;SDS011;9322;50.932;5.318;2022-08-24T02:28:57;10.38;;;5.00;;
18391;SDS011;9322;50.932;5.318;2022-08-24T02:31:23;7.30;;;4.60;;
18391;SDS011;9322;50.932;5.318;2022-08-24T02:33:48;6.38;;;5.10;;
18391;SDS011;9322;50.932;5.318;2022-08-24T02:36:14;8.27;;;4.80;;
18391;SDS011;9322;50.932;5.318;2022-08-24T02:38:40;7.30;;;4.90;;
18391;SDS011;9322;50.932;5.318;2022-08-24T02:41:06;11.77;;;5.23;;
18391;SDS011;9322;50.932;5.318;2022-08-24T02:43:34;7.95;;;5.00;;
18391;SDS011;9322;50.932;5.318;2022-08-24T02:45:59;8.53;;;5.50;;
18391;SDS011;9322;50.932;5.318;2022-08-24T02:48:26;12.38;;;5.47;;
18391;SDS011;9322;50.932;5.318;2022-08-24T02:50:52;8.05;;;5.70;;
18391;SDS011;9322;50.932;5.318;2022-08-24T02:53:18;12.15;;;5.63;;
18391;SDS011;9322;50.932;5.318;2022-08-24T02:55:45;10.05;;;6.40;;
18391;SDS011;9322;50.932;5.318;2022-08-24T02:58:12;10.90;;;5.78;;
18391;SDS011;9322;50.932;5.318;2022-08-24T03:00:41;8.52;;;5.85;;
18391;SDS011;9322;50.932;5.318;2022-08-24T03:03:08;10.88;;;6.25;;
18391;SDS011;9322;50.932;5.318;2022-08-24T03:05:35;9.65;;;6.45;;
18391;SDS011;9322;50.932;5.318;2022-08-24T03:08:01;13.23;;;7.10;;
18391;SDS011;9322;50.932;5.318;2022-08-24T03:10:26;13.13;;;6.95;;
18391;SDS011;9322;50.932;5.318;2022-08-24T03:12:52;11.60;;;6.90;;
18391;SDS011;9322;50.932;5.318;2022-08-24T03:15:19;14.30;;;7.75;;
18391;SDS011;9322;50.932;5.318;2022-08-24T03:17:46;10.00;;;6.78;;
18391;SDS011;9322;50.932;5.318;2022-08-24T03:20:15;10.98;;;6.93;;
18391;SDS011;9322;50.932;5.318;2022-08-24T03:22:42;11.93;;;6.73;;
18391;SDS011;9322;50.932;5.318;2022-08-24T03:25:09;13.07;;;6.60;;
18391;SDS011;9322;50.932;5.318;2022-08-24T03:27:36;10.67;;;7.10;;
18391;SDS011;9322;50.932;5.318;2022-08-24T03:30:03;9.87;;;7.23;;
18391;SDS011;9322;50.932;5.318;2022-08-24T03:32:31;12.30;;;7.43;;
18391;SDS011;9322;50.932;5.318;2022-08-24T03:34:56;11.23;;;7.30;;
18391;SDS011;9322;50.932;5.318;2022-08-24T03:37:22;12.13;;;7.10;;
18391;SDS011;9322;50.932;5.318;2022-08-24T03:39:48;13.10;;;8.13;;
18391;SDS011;9322;50.932;5.318;2022-08-24T03:42:15;11.37;;;7.70;;
18391;SDS011;9322;50.932;5.318;2022-08-24T03:44:41;10.57;;;7.60;;
18391;SDS011;9322;50.932;5.318;2022-08-24T03:47:07;13.90;;;7.60;;
18391;SDS011;9322;50.932;5.318;2022-08-24T03:49:36;13.73;;;7.37;;
18391;SDS011;9322;50.932;5.318;2022-08-24T03:52:03;11.17;;;7.50;;
18391;SDS011;9322;50.932;5.318;2022-08-24T03:54:30;10.68;;;8.02;;
18391;SDS011;9322;50.932;5.318;2022-08-24T03:56:56;13.13;;;8.40;;
18391;SDS011;9322;50.932;5.318;2022-08-24T03:59:23;13.13;;;8.37;;
18391;SDS011;9322;50.932;5.318;2022-08-24T04:01:49;15.32;;;9.18;;
18391;SDS011;9322;50.932;5.318;2022-08-24T04:04:15;15.93;;;9.47;;
18391;SDS011;9322;50.932;5.318;2022-08-24T04:06:41;13.03;;;8.93;;
18391;SDS011;9322;50.932;5.318;2022-08-24T04:09:10;15.67;;;9.67;;
18391;SDS011;9322;50.932;5.318;2022-08-24T04:11:37;13.67;;;8.90;;
18391;SDS011;9322;50.932;5.318;2022-08-24T04:14:02;15.30;;;8.63;;
18391;SDS011;9322;50.932;5.318;2022-08-24T04:16:28;15.33;;;8.70;;
18391;SDS011;9322;50.932;5.318;2022-08-24T04:18:57;13.93;;;8.60;;
18391;SDS011;9322;50.932;5.318;2022-08-24T04:21:30;17.60;;;8.60;;
18391;SDS011;9322;50.932;5.318;2022-08-24T04:23:58;11.60;;;8.00;;
18391;SDS011;9322;50.932;5.318;2022-08-24T04:26:25;14.73;;;8.47;;
18391;SDS011;9322;50.932;5.318;2022-08-24T04:28:52;14.53;;;8.70;;
18391;SDS011;9322;50.932;5.318;2022-08-24T04:31:19;20.03;;;8.60;;
18391;SDS011;9322;50.932;5.318;2022-08-24T04:33:45;16.23;;;9.23;;
18391;SDS011;9322;50.932;5.318;2022-08-24T04:36:14;12.00;;;8.13;;
18391;SDS011;9322;50.932;5.318;2022-08-24T04:38:40;14.30;;;9.23;;
18391;SDS011;9322;50.932;5.318;2022-08-24T04:41:07;12.50;;;8.83;;
18391;SDS011;9322;50.932;5.318;2022-08-24T04:43:36;14.90;;;8.90;;
18391;SDS011;9322;50.932;5.318;2022-08-24T04:46:07;12.83;;;9.40;;
18391;SDS011;9322;50.932;5.318;2022-08-24T04:48:33;15.33;;;9.87;;
18391;SDS011;9322;50.932;5.318;2022-08-24T04:51:03;15.33;;;10.40;;
18391;SDS011;9322;50.932;5.318;2022-08-24T04:53:30;16.57;;;10.23;;
18391;SDS011;9322;50.932;5.318;2022-08-24T04:55:57;21.33;;;9.77;;
18391;SDS011;9322;50.932;5.318;2022-08-24T04:58:23;20.97;;;9.93;;
18391;SDS011;9322;50.932;5.318;2022-08-24T05:00:49;14.53;;;9.53;;
18391;SDS011;9322;50.932;5.318;2022-08-24T05:03:14;17.20;;;11.10;;
18391;SDS011;9322;50.932;5.318;2022-08-24T05:05:41;21.03;;;11.00;;
18391;SDS011;9322;50.932;5.318;2022-08-24T05:08:09;17.43;;;9.90;;
18391;SDS011;9322;50.932;5.318;2022-08-24T05:10:38;17.73;;;9.83;;
18391;SDS011;9322;50.932;5.318;2022-08-24T05:13:06;15.60;;;9.53;;
18391;SDS011;9322;50.932;5.318;2022-08-24T05:15:33;14.13;;;9.17;;
18391;SDS011;9322;50.932;5.318;2022-08-24T05:18:00;13.47;;;8.80;;
18391;SDS011;9322;50.932;5.318;2022-08-24T05:20:26;14.83;;;8.00;;
18391;SDS011;9322;50.932;5.318;2022-08-24T05:22:52;13.18;;;7.43;;
18391;SDS011;9322;50.932;5.318;2022-08-24T05:25:19;12.65;;;7.63;;
18391;SDS011;9322;50.932;5.318;2022-08-24T05:27:45;11.88;;;6.40;;
18391;SDS011;9322;50.932;5.318;2022-08-24T05:30:11;13.15;;;5.70;;
18391;SDS011;9322;50.932;5.318;2022-08-24T05:32:37;9.10;;;5.57;;
18391;SDS011;9322;50.932;5.318;2022-08-24T05:35:03;11.98;;;5.47;;
18391;SDS011;9322;50.932;5.318;2022-08-24T05:37:31;12.27;;;5.00;;
18391;SDS011;9322;50.932;5.318;2022-08-24T05:40:00;12.05;;;5.63;;
18391;SDS011;9322;50.932;5.318;2022-08-24T05:42:26;10.32;;;5.40;;
18391;SDS011;9322;50.932;5.318;2022-08-24T05:44:52;8.90;;;5.80;;
18391;SDS011;9322;50.932;5.318;2022-08-24T05:47:17;15.98;;;5.57;;
18391;SDS011;9322;50.932;5.318;2022-08-24T05:49:43;14.82;;;5.93;;
18391;SDS011;9322;50.932;5.318;2022-08-24T05:52:09;13.15;;;5.50;;
18391;SDS011;9322;50.932;5.318;2022-08-24T05:54:35;14.10;;;5.40;;
18391;SDS011;9322;50.932;5.318;2022-08-24T05:57:01;9.57;;;6.07;;
18391;SDS011;9322;50.932;5.318;2022-08-24T05:59:29;11.43;;;6.55;;
18391;SDS011;9322;50.932;5.318;2022-08-24T06:01:55;10.45;;;6.20;;
18391;SDS011;9322;50.932;5.318;2022-08-24T06:04:21;9.02;;;5.97;;
18391;SDS011;9322;50.932;5.318;2022-08-24T06:06:47;13.00;;;6.07;;
18391;SDS011;9322;50.932;5.318;2022-08-24T06:09:14;9.07;;;6.72;;
18391;SDS011;9322;50.932;5.318;2022-08-24T06:11:40;10.82;;;7.65;;
18391;SDS011;9322;50.932;5.318;2022-08-24T06:14:10;12.80;;;7.63;;
18391;SDS011;9322;50.932;5.318;2022-08-24T06:16:39;13.43;;;8.85;;
18391;SDS011;9322;50.932;5.318;2022-08-24T06:19:08;13.25;;;8.15;;
18391;SDS011;9322;50.932;5.318;2022-08-24T06:21:35;19.48;;;8.27;;
18391;SDS011;9322;50.932;5.318;2022-08-24T06:24:02;12.73;;;8.65;;
18391;SDS011;9322;50.932;5.318;2022-08-24T06:26:29;17.83;;;8.55;;
18391;SDS011;9322;50.932;5.318;2022-08-24T06:29:13;13.98;;;9.23;;
18391;SDS011;9322;50.932;5.318;2022-08-24T06:31:40;14.60;;;9.82;;
18391;SDS011;9322;50.932;5.318;2022-08-24T06:34:11;19.75;;;9.73;;
18391;SDS011;9322;50.932;5.318;2022-08-24T06:36:39;14.35;;;8.73;;
18391;SDS011;9322;50.932;5.318;2022-08-24T06:39:04;18.27;;;8.75;;
18391;SDS011;9322;50.932;5.318;2022-08-24T06:41:31;14.05;;;8.25;;
18391;SDS011;9322;50.932;5.318;2022-08-24T06:43:56;17.45;;;8.23;;
18391;SDS011;9322;50.932;5.318;2022-08-24T06:46:23;14.73;;;7.28;;
18391;SDS011;9322;50.932;5.318;2022-08-24T06:48:48;16.77;;;8.25;;
18391;SDS011;9322;50.932;5.318;2022-08-24T06:51:16;16.42;;;7.28;;
18391;SDS011;9322;50.932;5.318;2022-08-24T06:53:43;19.23;;;8.30;;
18391;SDS011;9322;50.932;5.318;2022-08-24T06:56:10;23.50;;;11.75;;
18391;SDS011;9322;50.932;5.318;2022-08-24T06:58:36;21.50;;;10.90;;
18391;SDS011;9322;50.932;5.318;2022-08-24T07:01:09;18.90;;;13.25;;
18391;SDS011;9322;50.932;5.318;2022-08-24T07:03:46;19.08;;;11.90;;
18391;SDS011;9322;50.932;5.318;2022-08-24T07:06:12;24.80;;;14.30;;
18391;SDS011;9322;50.932;5.318;2022-08-24T07:08:39;29.20;;;15.93;;
18391;SDS011;9322;50.932;5.318;2022-08-24T07:11:06;27.38;;;16.42;;
18391;SDS011;9322;50.932;5.318;2022-08-24T07:13:33;23.67;;;16.25;;
18391;SDS011;9322;50.932;5.318;2022-08-24T07:15:58;27.65;;;17.15;;
18391;SDS011;9322;50.932;5.318;2022-08-24T07:18:25;30.88;;;17.58;;
18391;SDS011;9322;50.932;5.318;2022-08-24T07:20:51;25.20;;;16.52;;
18391;SDS011;9322;50.932;5.318;2022-08-24T07:23:17;29.05;;;17.20;;
18391;SDS011;9322;50.932;5.318;2022-08-24T07:25:44;23.15;;;15.27;;
18391;SDS011;9322;50.932;5.318;2022-08-24T07:28:11;29.85;;;16.85;;
18391;SDS011;9322;50.932;5.318;2022-08-24T07:30:37;18.77;;;14.60;;
18391;SDS011;9322;50.932;5.318;2022-08-24T07:33:04;17.63;;;14.40;;
18391;SDS011;9322;50.932;5.318;2022-08-24T07:35:30;16.60;;;13.43;;
18391;SDS011;9322;50.932;5.318;2022-08-24T07:37:58;19.75;;;12.95;;
18391;SDS011;9322;50.932;5.318;2022-08-24T07:40:25;28.05;;;12.48;;
18391;SDS011;9322;50.932;5.318;2022-08-24T07:42:52;16.52;;;12.32;;
18391;SDS011;9322;50.932;5.318;2022-08-24T07:45:19;17.55;;;11.05;;
18391;SDS011;9322;50.932;5.318;2022-08-24T07:47:46;20.88;;;11.07;;
18391;SDS011;9322;50.932;5.318;2022-08-24T07:50:12;20.27;;;10.48;;
18391;SDS011;9322;50.932;5.318;2022-08-24T07:52:39;14.32;;;10.48;;
18391;SDS011;9322;50.932;5.318;2022-08-24T07:55:06;18.25;;;9.80;;
18391;SDS011;9322;50.932;5.318;2022-08-24T07:57:33;13.57;;;10.00;;
18391;SDS011;9322;50.932;5.318;2022-08-24T07:59:59;12.85;;;8.80;;
18391;SDS011;9322;50.932;5.318;2022-08-24T08:02:26;12.95;;;8.30;;
18391;SDS011;9322;50.932;5.318;2022-08-24T08:04:55;11.70;;;8.02;;
18391;SDS011;9322;50.932;5.318;2022-08-24T08:07:21;9.68;;;8.00;;
18391;SDS011;9322;50.932;5.318;2022-08-24T08:09:47;13.00;;;7.82;;
18391;SDS011;9322;50.932;5.318;2022-08-24T08:12:14;9.48;;;7.03;;
18391;SDS011;9322;50.932;5.318;2022-08-24T08:14:39;12.63;;;8.25;;
18391;SDS011;9322;50.932;5.318;2022-08-24T08:17:05;11.43;;;7.25;;
18391;SDS011;9322;50.932;5.318;2022-08-24T08:19:31;13.57;;;6.00;;
18391;SDS011;9322;50.932;5.318;2022-08-24T08:21:58;15.13;;;5.97;;
18391;SDS011;9322;50.932;5.318;2022-08-24T08:24:42;10.23;;;5.38;;
18391;SDS011;9322;50.932;5.318;2022-08-24T08:27:09;9.20;;;6.22;;
18391;SDS011;9322;50.932;5.318;2022-08-24T08:29:36;17.40;;;6.25;;
18391;SDS011;9322;50.932;5.318;2022-08-24T08:32:04;9.15;;;6.07;;
18391;SDS011;9322;50.932;5.318;2022-08-24T08:34:30;12.43;;;6.22;;
18391;SDS011;9322;50.932;5.318;2022-08-24T08:36:56;16.60;;;5.65;;
18391;SDS011;9322;50.932;5.318;2022-08-24T08:39:23;15.50;;;5.43;;
18391;SDS011;9322;50.932;5.318;2022-08-24T08:51:16;8.95;;;4.60;;
18391;SDS011;9322;50.932;5.318;2022-08-24T08:54:13;7.95;;;3.67;;
18391;SDS011;9322;50.932;5.318;2022-08-24T08:57:06;11.02;;;3.65;;
18391;SDS011;9322;50.932;5.318;2022-08-24T09:10:54;6.05;;;2.45;;
18391;SDS011;9322;50.932;5.318;2022-08-24T09:29:53;9.75;;;2.47;;
18391;SDS011;9322;50.932;5.318;2022-08-24T09:35:17;9.68;;;2.60;;
18391;SDS011;9322;50.932;5.318;2022-08-24T09:40:57;9.93;;;2.88;;
18391;SDS011;9322;50.932;5.318;2022-08-24T09:57:53;11.82;;;3.00;;
18391;SDS011;9322;50.932;5.318;2022-08-24T10:00:49;6.10;;;2.80;;
18391;SDS011;9322;50.932;5.318;2022-08-24T10:03:23;12.82;;;2.80;;
18391;SDS011;9322;50.932;5.318;2022-08-24T10:33:28;7.63;;;2.13;;
18391;SDS011;9322;50.932;5.318;2022-08-24T10:36:07;4.82;;;1.70;;
18391;SDS011;9322;50.932;5.318;2022-08-24T10:38:47;6.53;;;1.88;;
18391;SDS011;9322;50.932;5.318;2022-08-24T10:47:36;8.98;;;1.95;;
18391;SDS011;9322;50.932;5.318;2022-08-24T10:50:25;5.18;;;1.80;;
18391;SDS011;9322;50.932;5.318;2022-08-24T10:53:10;5.35;;;1.92;;
18391;SDS011;9322;50.932;5.318;2022-08-24T10:55:37;14.45;;;1.90;;
18391;SDS011;9322;50.932;5.318;2022-08-24T10:58:24;9.20;;;2.17;;
18391;SDS011;9322;50.932;5.318;2022-08-24T11:03:53;7.15;;;2.10;;
18391;SDS011;9322;50.932;5.318;2022-08-24T11:06:43;5.57;;;1.75;;
18391;SDS011;9322;50.932;5.318;2022-08-24T11:09:50;7.03;;;1.52;;
18391;SDS011;9322;50.932;5.318;2022-08-24T11:12:30;6.03;;;1.80;;
18391;SDS011;9322;50.932;5.318;2022-08-24T11:15:03;6.60;;;1.63;;
18391;SDS011;9322;50.932;5.318;2022-08-24T11:17:56;6.35;;;1.92;;
18391;SDS011;9322;50.932;5.318;2022-08-24T11:20:31;5.35;;;1.60;;
18391;SDS011;9322;50.932;5.318;2022-08-24T11:25:35;2.63;;;1.42;;
18391;SDS011;9322;50.932;5.318;2022-08-24T11:28:04;11.90;;;2.40;;
18391;SDS011;9322;50.932;5.318;2022-08-24T11:30:37;5.35;;;1.80;;
18391;SDS011;9322;50.932;5.318;2022-08-24T11:33:05;5.07;;;1.30;;
18391;SDS011;9322;50.932;5.318;2022-08-24T11:35:50;3.72;;;1.52;;
18391;SDS011;9322;50.932;5.318;2022-08-24T11:40:54;1.98;;;1.05;;
18391;SDS011;9322;50.932;5.318;2022-08-24T11:43:30;4.10;;;1.40;;
18391;SDS011;9322;50.932;5.318;2022-08-24T11:51:53;3.72;;;1.33;;
18391;SDS011;9322;50.932;5.318;2022-08-24T12:00:17;6.70;;;1.58;;
18391;SDS011;9322;50.932;5.318;2022-08-24T12:11:16;8.10;;;1.40;;
18391;SDS011;9322;50.932;5.318;2022-08-24T12:17:08;4.03;;;1.60;;
18391;SDS011;9322;50.932;5.318;2022-08-24T12:19:53;2.45;;;1.58;;
18391;SDS011;9322;50.932;5.318;2022-08-24T12:22:24;4.32;;;1.80;;
18391;SDS011;9322;50.932;5.318;2022-08-24T12:24:53;3.38;;;1.63;;
18391;SDS011;9322;50.932;5.318;2022-08-24T12:27:26;4.05;;;2.03;;
18391;SDS011;9322;50.932;5.318;2022-08-24T12:30:04;3.58;;;1.90;;
18391;SDS011;9322;50.932;5.318;2022-08-24T12:35:37;3.10;;;1.70;;
18391;SDS011;9322;50.932;5.318;2022-08-24T12:40:42;2.80;;;1.63;;
18391;SDS011;9322;50.932;5.318;2022-08-24T12:46:27;8.05;;;2.00;;
18391;SDS011;9322;50.932;5.318;2022-08-24T12:59:47;4.88;;;1.83;;
18391;SDS011;9322;50.932;5.318;2022-08-24T13:17:50;6.70;;;1.92;;
18391;SDS011;9322;50.932;5.318;2022-08-24T13:23:17;4.13;;;1.85;;
18391;SDS011;9322;50.932;5.318;2022-08-24T13:36:35;3.88;;;1.77;;
18391;SDS011;9322;50.932;5.318;2022-08-24T13:39:48;8.32;;;2.17;;
18391;SDS011;9322;50.932;5.318;2022-08-24T13:42:37;5.60;;;1.98;;
18391;SDS011;9322;50.932;5.318;2022-08-24T13:45:32;6.80;;;1.88;;
18391;SDS011;9322;50.932;5.318;2022-08-24T14:08:18;7.05;;;2.10;;
18391;SDS011;9322;50.932;5.318;2022-08-24T14:16:33;5.15;;;1.90;;
18391;SDS011;9322;50.932;5.318;2022-08-24T14:22:41;9.82;;;2.13;;
18391;SDS011;9322;50.932;5.318;2022-08-24T14:25:45;2.97;;;2.10;;
18391;SDS011;9322;50.932;5.318;2022-08-24T14:31:14;4.32;;;1.88;;
18391;SDS011;9322;50.932;5.318;2022-08-24T14:39:20;3.53;;;1.98;;
18391;SDS011;9322;50.932;5.318;2022-08-24T14:41:51;3.25;;;1.90;;
18391;SDS011;9322;50.932;5.318;2022-08-24T14:44:32;7.18;;;2.10;;
18391;SDS011;9322;50.932;5.318;2022-08-24T14:47:18;6.43;;;2.50;;
18391;SDS011;9322;50.932;5.318;2022-08-24T15:06:39;9.40;;;2.08;;
18391;SDS011;9322;50.932;5.318;2022-08-24T15:09:24;5.25;;;2.30;;
18391;SDS011;9322;50.932;5.318;2022-08-24T15:12:10;5.07;;;2.00;;
18391;SDS011;9322;50.932;5.318;2022-08-24T15:14:44;6.22;;;2.15;;
18391;SDS011;9322;50.932;5.318;2022-08-24T15:17:16;8.68;;;2.25;;
18391;SDS011;9322;50.932;5.318;2022-08-24T15:20:20;6.10;;;2.25;;
18391;SDS011;9322;50.932;5.318;2022-08-24T15:22:48;8.38;;;2.25;;
18391;SDS011;9322;50.932;5.318;2022-08-24T15:28:21;5.40;;;2.40;;
18391;SDS011;9322;50.932;5.318;2022-08-24T15:30:53;6.43;;;2.08;;
18391;SDS011;9322;50.932;5.318;2022-08-24T15:33:28;6.13;;;2.45;;
18391;SDS011;9322;50.932;5.318;2022-08-24T15:38:40;3.13;;;2.10;;
18391;SDS011;9322;50.932;5.318;2022-08-24T15:41:20;6.53;;;2.20;;
18391;SDS011;9322;50.932;5.318;2022-08-24T15:44:01;6.07;;;2.10;;
18391;SDS011;9322;50.932;5.318;2022-08-24T15:49:02;4.97;;;2.15;;
18391;SDS011;9322;50.932;5.318;2022-08-24T15:51:53;3.75;;;2.30;;
18391;SDS011;9322;50.932;5.318;2022-08-24T15:56:53;5.85;;;2.08;;
18391;SDS011;9322;50.932;5.318;2022-08-24T16:10:32;3.92;;;2.15;;
18391;SDS011;9322;50.932;5.318;2022-08-24T16:18:15;8.88;;;2.20;;
18391;SDS011;9322;50.932;5.318;2022-08-24T16:20:43;5.70;;;1.90;;
18391;SDS011;9322;50.932;5.318;2022-08-24T16:23:11;4.57;;;2.05;;
18391;SDS011;9322;50.932;5.318;2022-08-24T16:25:46;4.47;;;1.95;;
18391;SDS011;9322;50.932;5.318;2022-08-24T16:30:46;4.63;;;2.50;;
18391;SDS011;9322;50.932;5.318;2022-08-24T16:33:34;7.55;;;2.40;;
18391;SDS011;9322;50.932;5.318;2022-08-24T16:36:03;6.35;;;2.13;;
18391;SDS011;9322;50.932;5.318;2022-08-24T16:38:31;8.68;;;2.15;;
18391;SDS011;9322;50.932;5.318;2022-08-24T16:40:58;6.38;;;2.13;;
18391;SDS011;9322;50.932;5.318;2022-08-24T16:43:26;5.93;;;2.40;;
18391;SDS011;9322;50.932;5.318;2022-08-24T16:45:53;7.32;;;2.25;;
18391;SDS011;9322;50.932;5.318;2022-08-24T16:48:19;5.30;;;2.40;;
18391;SDS011;9322;50.932;5.318;2022-08-24T16:50:45;7.70;;;2.10;;
18391;SDS011;9322;50.932;5.318;2022-08-24T16:53:10;5.53;;;2.30;;
18391;SDS011;9322;50.932;5.318;2022-08-24T16:55:36;10.70;;;2.67;;
18391;SDS011;9322;50.932;5.318;2022-08-24T16:58:03;6.00;;;2.50;;
18391;SDS011;9322;50.932;5.318;2022-08-24T17:00:29;3.58;;;2.17;;
18391;SDS011;9322;50.932;5.318;2022-08-24T17:02:55;7.75;;;2.30;;
18391;SDS011;9322;50.932;5.318;2022-08-24T17:05:21;6.95;;;2.40;;
18391;SDS011;9322;50.932;5.318;2022-08-24T17:07:47;7.97;;;2.50;;
18391;SDS011;9322;50.932;5.318;2022-08-24T17:10:15;4.47;;;2.25;;
18391;SDS011;9322;50.932;5.318;2022-08-24T17:12:42;8.43;;;2.50;;
18391;SDS011;9322;50.932;5.318;2022-08-24T17:15:09;5.70;;;2.30;;
18391;SDS011;9322;50.932;5.318;2022-08-24T17:17:37;7.20;;;2.33;;
18391;SDS011;9322;50.932;5.318;2022-08-24T17:20:05;5.25;;;2.13;;
18391;SDS011;9322;50.932;5.318;2022-08-24T17:22:35;8.02;;;2.40;;
18391;SDS011;9322;50.932;5.318;2022-08-24T17:25:02;4.63;;;2.22;;
18391;SDS011;9322;50.932;5.318;2022-08-24T17:27:29;5.60;;;2.00;;
18391;SDS011;9322;50.932;5.318;2022-08-24T17:29:57;4.13;;;2.55;;
18391;SDS011;9322;50.932;5.318;2022-08-24T17:32:25;6.43;;;2.40;;
18391;SDS011;9322;50.932;5.318;2022-08-24T17:34:50;7.38;;;2.60;;
18391;SDS011;9322;50.932;5.318;2022-08-24T17:37:17;7.78;;;2.80;;
18391;SDS011;9322;50.932;5.318;2022-08-24T17:39:42;6.95;;;2.67;;
18391;SDS011;9322;50.932;5.318;2022-08-24T17:42:08;8.05;;;2.80;;
18391;SDS011;9322;50.932;5.318;2022-08-24T17:44:34;8.20;;;2.55;;
18391;SDS011;9322;50.932;5.318;2022-08-24T17:47:01;7.68;;;2.47;;
18391;SDS011;9322;50.932;5.318;2022-08-24T17:49:29;5.47;;;2.45;;
18391;SDS011;9322;50.932;5.318;2022-08-24T17:51:56;6.70;;;2.60;;
18391;SDS011;9322;50.932;5.318;2022-08-24T17:54:22;6.82;;;2.58;;
18391;SDS011;9322;50.932;5.318;2022-08-24T17:56:49;6.18;;;2.72;;
18391;SDS011;9322;50.932;5.318;2022-08-24T17:59:16;4.95;;;2.88;;
18391;SDS011;9322;50.932;5.318;2022-08-24T18:01:52;8.35;;;2.80;;
18391;SDS011;9322;50.932;5.318;2022-08-24T18:04:21;7.85;;;2.90;;
18391;SDS011;9322;50.932;5.318;2022-08-24T18:06:50;7.43;;;2.70;;
18391;SDS011;9322;50.932;5.318;2022-08-24T18:09:17;8.32;;;2.75;;
18391;SDS011;9322;50.932;5.318;2022-08-24T18:11:48;8.15;;;2.65;;
18391;SDS011;9322;50.932;5.318;2022-08-24T18:14:14;5.57;;;2.80;;
18391;SDS011;9322;50.932;5.318;2022-08-24T18:16:39;5.93;;;2.55;;
18391;SDS011;9322;50.932;5.318;2022-08-24T18:19:05;7.80;;;2.80;;
18391;SDS011;9322;50.932;5.318;2022-08-24T18:21:31;5.68;;;2.72;;
18391;SDS011;9322;50.932;5.318;2022-08-24T18:23:56;9.93;;;3.05;;
18391;SDS011;9322;50.932;5.318;2022-08-24T18:26:25;9.27;;;2.80;;
18391;SDS011;9322;50.932;5.318;2022-08-24T18:28:54;7.43;;;2.90;;
18391;SDS011;9322;50.932;5.318;2022-08-24T18:31:23;9.80;;;2.80;;
18391;SDS011;9322;50.932;5.318;2022-08-24T18:33:50;6.22;;;2.70;;
18391;SDS011;9322;50.932;5.318;2022-08-24T18:36:16;6.97;;;2.90;;
18391;SDS011;9322;50.932;5.318;2022-08-24T18:38:42;10.25;;;2.70;;
18391;SDS011;9322;50.932;5.318;2022-08-24T18:41:07;7.03;;;2.90;;
18391;SDS011;9322;50.932;5.318;2022-08-24T18:43:34;4.97;;;2.78;;
18391;SDS011;9322;50.932;5.318;2022-08-24T18:46:00;9.10;;;3.08;;
18391;SDS011;9322;50.932;5.318;2022-08-24T18:48:27;6.82;;;2.72;;
18391;SDS011;9322;50.932;5.318;2022-08-24T18:50:52;7.63;;;2.92;;
18391;SDS011;9322;50.932;5.318;2022-08-24T18:53:20;5.85;;;2.67;;
18391;SDS011;9322;50.932;5.318;2022-08-24T18:55:49;5.53;;;2.60;;
18391;SDS011;9322;50.932;5.318;2022-08-24T18:58:15;11.30;;;3.15;;
18391;SDS011;9322;50.932;5.318;2022-08-24T19:00:40;5.70;;;2.65;;
18391;SDS011;9322;50.932;5.318;2022-08-24T19:03:07;9.93;;;2.85;;
18391;SDS011;9322;50.932;5.318;2022-08-24T19:05:34;10.07;;;3.15;;
18391;SDS011;9322;50.932;5.318;2022-08-24T19:08:00;6.50;;;2.63;;
18391;SDS011;9322;50.932;5.318;2022-08-24T19:10:27;6.55;;;3.03;;
18391;SDS011;9322;50.932;5.318;2022-08-24T19:12:59;8.43;;;2.83;;
18391;SDS011;9322;50.932;5.318;2022-08-24T19:15:27;4.28;;;2.40;;
18391;SDS011;9322;50.932;5.318;2022-08-24T19:17:53;6.55;;;2.75;;
18391;SDS011;9322;50.932;5.318;2022-08-24T19:20:20;11.40;;;2.75;;
18391;SDS011;9322;50.932;5.318;2022-08-24T19:22:46;5.47;;;2.55;;
18391;SDS011;9322;50.932;5.318;2022-08-24T19:25:20;5.80;;;2.72;;
18391;SDS011;9322;50.932;5.318;2022-08-24T19:27:51;7.68;;;2.63;;
18391;SDS011;9322;50.932;5.318;2022-08-24T19:30:18;12.18;;;2.80;;
18391;SDS011;9322;50.932;5.318;2022-08-24T19:32:45;7.55;;;2.90;;